Time;durP1;ratioP1;P1;durP2;ratioP2;P2;SDS_P1;SDS_P2;PMS_P1;PMS_P2;Temp;Humidity;BMP_temperature;BMP_pressure;BME280_temperature;BME280_humidity;BME280_pressure;Samples;Min_cycle;Max_cycle;Signal;HPM_P1;HPM_P2
2022/08/29 00:01:20;;;;;;;9.13;3.20;;;17.00;99.90;;;;;;5102024;28;20048;-53
2022/08/29 00:03:46;;;;;;;9.15;3.28;;;16.90;99.90;;;;;;5101335;28;20040;-52
2022/08/29 00:06:12;;;;;;;10.10;3.45;;;17.00;99.90;;;;;;5101624;28;20180;-51
2022/08/29 00:08:38;;;;;;;7.40;3.00;;;16.80;99.90;;;;;;5101396;28;20552;-53
2022/08/29 00:11:05;;;;;;;8.68;3.33;;;16.90;99.90;;;;;;5100823;28;20040;-52
2022/08/29 00:13:31;;;;;;;12.57;2.90;;;16.90;99.90;;;;;;5101591;28;20078;-52
2022/08/29 00:15:57;;;;;;;8.38;3.25;;;16.90;99.90;;;;;;5100735;28;20058;-52
2022/08/29 00:18:23;;;;;;;8.93;3.05;;;16.90;99.90;;;;;;5083951;28;20044;-52
2022/08/29 00:20:49;;;;;;;9.55;3.97;;;16.90;99.90;;;;;;5080494;28;20068;-52
2022/08/29 00:23:15;;;;;;;7.78;3.03;;;16.90;99.90;;;;;;5081111;28;20044;-53
2022/08/29 00:25:41;;;;;;;10.82;3.95;;;16.90;99.90;;;;;;5081034;28;20048;-52
2022/08/29 00:28:07;;;;;;;8.35;3.33;;;16.90;99.90;;;;;;5080589;28;20067;-53
2022/08/29 00:30:34;;;;;;;11.60;3.00;;;16.90;99.90;;;;;;5080780;28;20037;-53
2022/08/29 00:33:00;;;;;;;9.95;3.70;;;16.90;99.90;;;;;;5079932;28;20049;-53
2022/08/29 00:35:29;;;;;;;10.82;2.53;;;16.90;99.90;;;;;;5080686;28;20858;-53
2022/08/29 00:37:55;;;;;;;8.77;2.85;;;16.80;99.90;;;;;;5086125;28;20037;-52
2022/08/29 00:40:41;;;;;;;10.75;3.38;;;16.90;99.90;;;;;;5100763;28;20399;-52
2022/08/29 00:43:07;;;;;;;9.82;2.83;;;16.90;99.90;;;;;;5100565;28;20071;-52
2022/08/29 00:45:33;;;;;;;8.63;2.50;;;16.90;99.90;;;;;;5100156;28;20036;-52
2022/08/29 00:48:13;;;;;;;7.75;2.65;;;16.90;99.90;;;;;;5100231;28;20036;-51
2022/08/29 00:50:55;;;;;;;10.00;2.47;;;16.90;99.90;;;;;;5099749;28;20139;-51
2022/08/29 00:53:32;;;;;;;6.72;1.90;;;16.90;99.90;;;;;;5099795;28;20063;-50
2022/08/29 00:56:00;;;;;;;8.07;2.22;;;16.90;99.90;;;;;;5100436;28;20080;-55
2022/08/29 00:58:51;;;;;;;9.07;2.22;;;16.90;99.90;;;;;;5099947;28;20056;-54
2022/08/29 01:01:18;;;;;;;12.02;2.55;;;16.90;99.90;;;;;;5094714;28;20060;-52
2022/08/29 01:03:45;;;;;;;8.95;2.60;;;16.80;99.90;;;;;;5100060;28;20040;-52
2022/08/29 01:06:12;;;;;;;6.50;2.00;;;16.80;99.90;;;;;;5100133;28;20055;-53
2022/08/29 01:08:38;;;;;;;8.63;2.40;;;16.80;99.90;;;;;;5100066;28;20028;-52
2022/08/29 01:13:53;;;;;;;10.02;2.40;;;16.80;99.90;;;;;;5100433;28;20040;-53
2022/08/29 01:16:19;;;;;;;6.72;2.22;;;16.80;99.90;;;;;;5098128;28;20028;-50
2022/08/29 01:18:50;;;;;;;10.48;2.38;;;16.80;99.90;;;;;;5079773;28;20059;-52
2022/08/29 01:21:42;;;;;;;8.32;2.80;;;16.90;99.90;;;;;;5079423;28;20036;-48
2022/08/29 01:24:14;;;;;;;9.48;2.55;;;16.80;99.90;;;;;;5079238;28;20540;-53
2022/08/29 01:26:43;;;;;;;9.20;2.80;;;16.90;99.90;;;;;;5079783;28;20048;-52
2022/08/29 01:29:09;;;;;;;7.80;2.35;;;16.90;99.90;;;;;;5078956;28;20045;-51
2022/08/29 01:31:47;;;;;;;11.25;2.55;;;16.90;99.90;;;;;;5079868;28;20037;-52
2022/08/29 01:34:16;;;;;;;8.75;2.30;;;16.80;99.90;;;;;;5079360;28;20075;-52
2022/08/29 01:36:52;;;;;;;6.82;2.00;;;16.80;99.90;;;;;;5079026;28;20082;-52
2022/08/29 01:39:21;;;;;;;8.30;2.10;;;16.90;99.90;;;;;;5095390;28;20056;-50
2022/08/29 01:41:47;;;;;;;12.88;1.98;;;16.80;99.90;;;;;;5098735;28;20125;-52
2022/08/29 01:44:18;;;;;;;9.02;2.15;;;16.70;99.90;;;;;;5100098;28;20058;-51
2022/08/29 01:46:45;;;;;;;10.27;2.05;;;16.80;99.90;;;;;;5098040;28;20047;-49
2022/08/29 01:49:12;;;;;;;10.20;2.45;;;16.80;99.90;;;;;;5099477;28;20582;-53
2022/08/29 01:51:40;;;;;;;8.65;2.63;;;16.70;99.90;;;;;;5099726;28;20032;-53
2022/08/29 01:54:09;;;;;;;7.60;1.90;;;16.70;99.90;;;;;;5098614;28;20132;-52
2022/08/29 01:56:39;;;;;;;8.45;2.03;;;16.70;99.90;;;;;;5099450;28;20043;-52
2022/08/29 01:59:07;;;;;;;9.43;2.30;;;16.70;99.90;;;;;;5098613;28;20048;-51
2022/08/29 02:01:37;;;;;;;10.05;2.20;;;16.70;99.90;;;;;;5099393;28;20044;-52
2022/08/29 02:04:04;;;;;;;9.43;2.67;;;16.70;99.90;;;;;;5099024;28;20040;-52
2022/08/29 02:06:30;;;;;;;8.95;2.65;;;16.70;99.90;;;;;;5097044;28;20591;-50
2022/08/29 02:08:56;;;;;;;10.57;2.65;;;16.80;99.90;;;;;;5098972;28;20040;-52
2022/08/29 02:11:22;;;;;;;9.90;2.17;;;16.80;99.90;;;;;;5097210;28;20063;-53
2022/08/29 02:13:56;;;;;;;9.48;2.53;;;16.80;99.90;;;;;;5099371;28;20435;-52
2022/08/29 02:16:24;;;;;;;10.82;2.95;;;16.80;99.90;;;;;;5097956;28;20044;-52
2022/08/29 02:18:50;;;;;;;10.05;2.10;;;16.80;99.90;;;;;;5078758;28;20055;-51
2022/08/29 02:21:19;;;;;;;8.02;2.10;;;16.70;99.90;;;;;;5076951;28;20055;-53
2022/08/29 02:23:45;;;;;;;12.02;2.33;;;16.70;99.90;;;;;;5078242;28;20079;-51
2022/08/29 02:26:11;;;;;;;9.15;2.20;;;16.70;99.90;;;;;;5078687;28;20049;-52
2022/08/29 02:28:38;;;;;;;11.18;2.90;;;16.70;99.90;;;;;;5077601;28;20049;-52
2022/08/29 02:31:05;;;;;;;9.02;2.22;;;16.80;99.90;;;;;;5078707;28;20037;-52
2022/08/29 02:33:31;;;;;;;9.85;2.50;;;16.70;99.90;;;;;;5077848;28;20040;-53
2022/08/29 02:35:57;;;;;;;10.65;2.40;;;16.80;99.90;;;;;;5078699;28;20040;-50
2022/08/29 02:38:23;;;;;;;10.38;2.58;;;16.80;99.90;;;;;;5088222;28;20123;-52
2022/08/29 02:40:49;;;;;;;8.15;2.20;;;16.90;99.90;;;;;;5098150;28;20066;-52
2022/08/29 02:43:18;;;;;;;9.05;2.35;;;16.90;99.90;;;;;;5098731;28;20036;-52
2022/08/29 02:45:45;;;;;;;11.35;2.20;;;16.90;99.90;;;;;;5097980;28;20082;-53
2022/08/29 02:48:12;;;;;;;9.50;2.25;;;16.90;99.90;;;;;;5098269;28;20073;-53
2022/08/29 02:50:47;;;;;;;9.52;2.65;;;17.00;99.90;;;;;;5097889;28;20050;-52
2022/08/29 02:53:16;;;;;;;8.52;2.40;;;17.00;99.90;;;;;;5098551;28;20044;-53
2022/08/29 02:55:42;;;;;;;9.18;2.38;;;17.00;99.90;;;;;;5096746;28;20726;-52
2022/08/29 02:58:08;;;;;;;7.35;2.30;;;17.00;99.90;;;;;;5097817;28;20048;-52
2022/08/29 03:00:34;;;;;;;11.35;2.70;;;16.90;99.90;;;;;;5097978;28;20127;-52
2022/08/29 03:03:00;;;;;;;12.68;3.22;;;16.90;99.90;;;;;;5097537;28;20067;-53
2022/08/29 03:05:31;;;;;;;8.05;2.13;;;16.90;99.90;;;;;;5098618;28;20043;-51
2022/08/29 03:07:57;;;;;;;11.48;2.50;;;16.90;99.90;;;;;;5096496;28;20100;-52
2022/08/29 03:10:24;;;;;;;9.40;2.65;;;16.80;99.90;;;;;;5097705;28;20523;-52
2022/08/29 03:12:50;;;;;;;7.00;1.98;;;16.80;99.90;;;;;;5097994;28;20044;-51
2022/08/29 03:15:16;;;;;;;7.93;2.35;;;16.90;99.90;;;;;;5096875;28;20043;-54
2022/08/29 03:17:43;;;;;;;7.97;1.92;;;16.80;99.90;;;;;;5086307;28;20439;-54
2022/08/29 03:20:10;;;;;;;10.10;2.42;;;16.80;99.90;;;;;;5077312;28;20539;-53
2022/08/29 03:22:36;;;;;;;7.50;2.20;;;16.80;99.90;;;;;;5077018;28;20036;-50
2022/08/29 03:25:03;;;;;;;7.90;2.00;;;16.80;99.90;;;;;;5077412;28;20037;-52
2022/08/29 03:27:31;;;;;;;12.02;2.97;;;16.80;99.90;;;;;;5076768;28;20500;-52
2022/08/29 03:29:57;;;;;;;10.93;2.65;;;16.80;99.90;;;;;;5077685;28;20488;-53
2022/08/29 03:32:24;;;;;;;7.97;2.00;;;16.80;99.90;;;;;;5076996;28;20051;-53
2022/08/29 03:34:50;;;;;;;9.55;2.22;;;16.80;99.90;;;;;;5077290;28;20040;-52
2022/08/29 03:37:16;;;;;;;8.68;2.00;;;16.80;99.90;;;;;;5077712;28;20045;-53
2022/08/29 03:39:42;;;;;;;12.30;3.05;;;16.80;99.90;;;;;;5097929;28;20048;-52
2022/08/29 03:42:08;;;;;;;7.85;1.98;;;16.80;99.90;;;;;;5097542;28;20098;-53
2022/08/29 03:44:35;;;;;;;10.77;2.50;;;16.80;99.90;;;;;;5097904;28;20407;-51
2022/08/29 03:47:01;;;;;;;10.55;2.80;;;16.80;99.90;;;;;;5097807;28;20044;-52
2022/08/29 03:49:27;;;;;;;10.35;2.20;;;16.80;99.90;;;;;;5097527;28;20040;-52
2022/08/29 03:51:52;;;;;;;6.25;1.95;;;16.80;99.90;;;;;;5097867;28;20043;-51
2022/08/29 03:54:18;;;;;;;10.90;2.78;;;16.80;99.90;;;;;;5096973;28;20067;-53
2022/08/29 03:56:45;;;;;;;9.55;2.33;;;16.80;99.90;;;;;;5098058;28;20055;-52
2022/08/29 03:59:10;;;;;;;10.45;2.47;;;16.80;99.90;;;;;;5097093;28;20056;-53
2022/08/29 04:01:37;;;;;;;6.57;2.10;;;16.80;99.90;;;;;;5097992;28;20047;-49
2022/08/29 04:04:04;;;;;;;11.50;2.30;;;16.80;99.90;;;;;;5097828;28;20044;-52
2022/08/29 04:06:30;;;;;;;12.52;2.20;;;16.80;99.90;;;;;;5097433;28;20043;-53
2022/08/29 04:08:57;;;;;;;11.20;2.97;;;16.80;99.90;;;;;;5097639;28;20454;-53
2022/08/29 04:11:24;;;;;;;10.18;2.13;;;16.80;99.90;;;;;;5096783;28;20040;-52
2022/08/29 04:13:52;;;;;;;7.70;2.20;;;16.70;99.90;;;;;;5097681;28;20052;-52
2022/08/29 04:16:26;;;;;;;10.48;2.65;;;16.70;99.90;;;;;;5097105;28;20047;-52
2022/08/29 04:18:52;;;;;;;8.98;1.95;;;16.70;99.90;;;;;;5077545;28;20075;-51
2022/08/29 04:21:18;;;;;;;10.95;2.38;;;16.70;99.90;;;;;;5059098;28;20044;-50
2022/08/29 04:23:48;;;;;;;11.27;2.38;;;16.70;99.90;;;;;;5076785;28;20037;-51
2022/08/29 04:26:17;;;;;;;10.20;3.05;;;16.70;99.90;;;;;;5077275;28;20037;-52
2022/08/29 04:28:43;;;;;;;12.77;3.63;;;16.70;99.90;;;;;;5078536;28;20062;-53
2022/08/29 04:31:18;;;;;;;10.32;2.22;;;16.70;99.90;;;;;;5081013;28;20056;-52
2022/08/29 04:33:45;;;;;;;6.97;2.13;;;16.70;99.90;;;;;;5080323;28;20066;-52
2022/08/29 04:36:12;;;;;;;11.23;2.88;;;16.70;99.90;;;;;;5080950;28;20044;-53
2022/08/29 04:38:38;;;;;;;7.95;2.30;;;16.70;99.90;;;;;;5092379;28;20048;-52
2022/08/29 04:41:05;;;;;;;8.45;2.78;;;16.70;99.90;;;;;;5099027;28;20059;-52
2022/08/29 04:43:31;;;;;;;9.00;2.20;;;16.70;99.90;;;;;;5100871;28;20094;-53
2022/08/29 04:45:57;;;;;;;11.65;2.35;;;16.70;99.90;;;;;;5100074;28;20044;-52
2022/08/29 04:48:23;;;;;;;7.80;1.88;;;16.60;99.90;;;;;;5100894;28;20586;-52
2022/08/29 04:50:57;;;;;;;10.07;2.70;;;16.60;99.90;;;;;;5100445;28;20415;-52
2022/08/29 04:53:23;;;;;;;10.77;2.63;;;16.60;99.90;;;;;;5098960;28;20054;-51
2022/08/29 04:56:02;;;;;;;11.35;2.42;;;16.50;99.90;;;;;;5100283;28;20059;-53
2022/08/29 04:58:29;;;;;;;9.02;2.70;;;16.60;99.90;;;;;;5099688;28;20082;-52
2022/08/29 05:00:55;;;;;;;13.38;2.95;;;16.60;99.90;;;;;;5100398;28;20086;-51
2022/08/29 05:03:22;;;;;;;8.48;2.70;;;16.60;99.90;;;;;;5099891;28;20131;-52
2022/08/29 05:06:02;;;;;;;9.07;2.30;;;16.60;99.90;;;;;;5100308;28;20036;-50
2022/08/29 05:08:29;;;;;;;9.60;2.28;;;16.60;99.90;;;;;;5100365;28;20074;-52
2022/08/29 05:10:54;;;;;;;9.30;2.63;;;16.60;99.90;;;;;;5099360;28;20043;-51
2022/08/29 05:13:21;;;;;;;10.35;2.22;;;16.70;99.90;;;;;;5100236;28;20048;-53
2022/08/29 05:15:47;;;;;;;7.57;1.98;;;16.60;99.90;;;;;;5099895;28;20040;-53
2022/08/29 05:18:13;;;;;;;8.20;2.20;;;16.60;99.90;;;;;;5083983;28;20437;-52
2022/08/29 05:20:40;;;;;;;6.72;2.20;;;16.60;99.90;;;;;;5079241;28;20049;-51
2022/08/29 05:23:06;;;;;;;7.78;2.40;;;16.50;99.90;;;;;;5079851;28;20039;-53
2022/08/29 05:25:32;;;;;;;8.18;2.00;;;16.70;99.90;;;;;;5079727;28;20097;-51
2022/08/29 05:27:57;;;;;;;9.27;2.20;;;16.70;99.90;;;;;;5079225;28;20052;-52
2022/08/29 05:30:23;;;;;;;7.93;2.53;;;16.70;99.90;;;;;;5079609;28;20044;-50
2022/08/29 05:32:50;;;;;;;7.78;1.95;;;16.70;99.90;;;;;;5078713;28;20064;-51
2022/08/29 05:35:17;;;;;;;7.45;2.25;;;16.70;99.90;;;;;;5079585;28;20112;-51
2022/08/29 05:37:43;;;;;;;8.95;2.50;;;16.80;99.90;;;;;;5083410;28;20084;-53
2022/08/29 05:40:09;;;;;;;6.70;2.15;;;16.80;99.90;;;;;;5099107;28;20048;-52
2022/08/29 05:42:34;;;;;;;7.85;1.90;;;16.80;99.90;;;;;;5099392;28;20040;-52
2022/08/29 05:45:03;;;;;;;8.15;2.33;;;16.80;99.90;;;;;;5099417;28;20044;-52
2022/08/29 05:47:30;;;;;;;5.95;1.92;;;16.80;99.90;;;;;;5099505;28;20093;-52
2022/08/29 05:49:56;;;;;;;5.70;1.83;;;16.80;99.90;;;;;;5097889;28;20498;-52
2022/08/29 05:52:22;;;;;;;6.72;1.80;;;16.80;99.90;;;;;;5099562;28;20040;-51
2022/08/29 05:54:48;;;;;;;8.40;2.55;;;16.80;99.90;;;;;;5098577;28;20052;-50
2022/08/29 05:57:17;;;;;;;7.68;2.28;;;16.90;99.90;;;;;;5099751;28;20044;-53
2022/08/29 05:59:42;;;;;;;7.60;2.13;;;16.90;99.90;;;;;;5099050;28;20055;-52
2022/08/29 06:02:09;;;;;;;9.48;2.45;;;16.90;99.90;;;;;;5098739;28;20044;-52
2022/08/29 06:04:35;;;;;;;8.48;2.10;;;17.00;99.90;;;;;;5098883;28;20124;-53
2022/08/29 06:07:03;;;;;;;10.20;2.67;;;17.00;99.90;;;;;;5098464;28;20044;-53
2022/08/29 06:09:28;;;;;;;8.20;2.03;;;17.00;99.90;;;;;;5098814;28;20074;-50
2022/08/29 06:11:56;;;;;;;9.68;2.40;;;17.10;99.90;;;;;;5098492;28;20071;-50
2022/08/29 06:14:22;;;;;;;9.93;2.75;;;17.10;99.90;;;;;;5098766;28;20048;-48
2022/08/29 06:16:48;;;;;;;7.20;2.30;;;17.10;99.90;;;;;;5094471;28;20050;-49
2022/08/29 06:19:13;;;;;;;7.60;2.10;;;17.20;99.90;;;;;;5078185;28;20068;-52
2022/08/29 06:21:40;;;;;;;8.55;2.83;;;17.20;99.90;;;;;;5078449;28;20036;-52
2022/08/29 06:24:06;;;;;;;9.05;3.00;;;17.30;99.90;;;;;;5078005;28;20066;-52
2022/08/29 06:26:32;;;;;;;9.43;3.05;;;17.40;99.90;;;;;;5078466;28;20033;-51
2022/08/29 06:28:58;;;;;;;9.02;3.22;;;17.40;99.90;;;;;;5075938;28;20428;-50
2022/08/29 06:31:27;;;;;;;12.35;2.90;;;17.50;99.90;;;;;;5078364;28;20104;-50
2022/08/29 06:33:56;;;;;;;13.85;3.20;;;17.50;99.90;;;;;;5073929;28;20500;-51
2022/08/29 06:36:24;;;;;;;10.65;3.05;;;17.50;99.90;;;;;;5074893;28;20101;-49
2022/08/29 06:38:50;;;;;;;13.52;3.22;;;17.70;99.90;;;;;;5088237;28;20811;-51
2022/08/29 06:41:17;;;;;;;10.07;2.95;;;17.70;99.90;;;;;;5094737;28;20043;-52
2022/08/29 06:43:43;;;;;;;11.25;3.15;;;17.70;99.90;;;;;;5095257;28;20044;-51
2022/08/29 06:46:25;;;;;;;10.68;3.30;;;17.70;99.90;;;;;;5094064;28;20100;-52
2022/08/29 06:48:52;;;;;;;13.77;3.20;;;17.70;99.90;;;;;;5095463;28;20052;-51
2022/08/29 06:51:18;;;;;;;10.50;2.97;;;17.60;99.90;;;;;;5094599;28;20785;-51
2022/08/29 06:53:44;;;;;;;12.70;3.05;;;17.70;99.90;;;;;;5094443;28;20032;-48
2022/08/29 06:56:10;;;;;;;12.43;2.97;;;17.80;99.90;;;;;;5094036;28;20077;-51
2022/08/29 06:58:36;;;;;;;11.98;3.10;;;17.80;99.90;;;;;;5093650;28;20052;-50
2022/08/29 07:01:06;;;;;;;12.27;3.03;;;17.90;99.90;;;;;;5095364;28;20042;-53
2022/08/29 07:03:32;;;;;;;7.13;2.75;;;17.90;99.90;;;;;;5074985;28;20048;-52
2022/08/29 07:05:58;;;;;;;12.13;2.70;;;17.90;99.90;;;;;;5073615;28;20280;-51
2022/08/29 07:08:23;;;;;;;10.23;3.03;;;17.90;99.90;;;;;;5074497;28;20119;-52
2022/08/29 07:10:49;;;;;;;11.98;3.25;;;18.00;99.90;;;;;;5073809;28;20055;-52
2022/08/29 07:13:15;;;;;;;13.77;3.08;;;18.00;99.90;;;;;;5074721;28;20048;-51
2022/08/29 07:15:41;;;;;;;11.38;3.60;;;18.00;99.90;;;;;;5073795;28;20098;-52
2022/08/29 07:18:06;;;;;;;12.85;2.90;;;18.00;99.90;;;;;;5089706;28;20056;-52
2022/08/29 07:20:32;;;;;;;16.90;3.00;;;18.00;99.90;;;;;;5093568;28;20082;-51
2022/08/29 07:22:58;;;;;;;9.35;3.10;;;18.00;99.90;;;;;;5095053;28;20052;-53
2022/08/29 07:25:25;;;;;;;12.90;4.00;;;18.10;99.90;;;;;;5094378;28;20055;-53
2022/08/29 07:27:50;;;;;;;13.73;3.45;;;18.30;99.90;;;;;;5094469;28;20097;-51
2022/08/29 07:30:16;;;;;;;9.50;2.95;;;18.30;99.90;;;;;;5094345;28;20104;-52
2022/08/29 07:32:44;;;;;;;11.70;3.00;;;18.30;99.90;;;;;;5093527;28;20071;-52
2022/08/29 07:35:14;;;;;;;12.82;3.60;;;18.30;99.90;;;;;;5094870;28;20040;-50
2022/08/29 07:37:40;;;;;;;11.40;2.95;;;18.40;99.90;;;;;;5093818;28;20040;-51
2022/08/29 07:40:08;;;;;;;10.55;2.47;;;18.40;99.90;;;;;;5094456;28;20086;-51
2022/08/29 07:42:34;;;;;;;12.90;2.90;;;18.40;99.90;;;;;;5092999;28;20052;-51
2022/08/29 07:45:00;;;;;;;10.73;3.25;;;18.40;99.90;;;;;;5093881;28;20048;-50
2022/08/29 07:47:27;;;;;;;14.00;3.00;;;18.40;99.90;;;;;;5094669;28;20056;-51
2022/08/29 07:49:53;;;;;;;11.10;3.22;;;18.50;99.90;;;;;;5094033;28;20143;-52
2022/08/29 07:52:19;;;;;;;12.60;3.15;;;18.50;99.90;;;;;;5076187;28;20508;-50
2022/08/29 07:54:45;;;;;;;10.63;3.40;;;18.60;99.90;;;;;;5093717;28;20084;-53
2022/08/29 07:57:11;;;;;;;11.55;3.08;;;18.70;99.90;;;;;;5094348;28;20098;-53
2022/08/29 07:59:37;;;;;;;10.98;3.00;;;18.50;99.90;;;;;;5092884;28;20089;-51
2022/08/29 08:02:02;;;;;;;10.68;3.20;;;18.50;99.90;;;;;;5088509;28;20036;-51
2022/08/29 08:04:29;;;;;;;11.70;2.95;;;18.50;99.90;;;;;;5084286;28;20045;-51
2022/08/29 08:06:54;;;;;;;12.18;3.20;;;18.60;99.90;;;;;;5086955;28;20047;-52
2022/08/29 08:09:20;;;;;;;14.05;3.53;;;18.60;99.90;;;;;;5088109;28;20908;-53
2022/08/29 08:11:46;;;;;;;12.30;3.40;;;18.70;99.90;;;;;;5085816;28;20033;-51
2022/08/29 08:14:12;;;;;;;12.80;3.13;;;18.70;99.90;;;;;;5088165;28;20036;-50
2022/08/29 08:16:38;;;;;;;14.15;3.03;;;18.70;99.90;;;;;;5082736;28;20100;-52
2022/08/29 08:19:05;;;;;;;13.45;3.92;;;18.60;99.90;;;;;;5095961;28;20083;-53
2022/08/29 08:21:31;;;;;;;10.95;3.42;;;18.50;99.90;;;;;;5085479;28;20048;-48
2022/08/29 08:23:56;;;;;;;9.90;3.05;;;18.40;99.90;;;;;;5088103;28;20040;-50
2022/08/29 08:26:22;;;;;;;11.90;3.53;;;18.30;99.90;;;;;;5086768;28;20090;-51
2022/08/29 08:28:48;;;;;;;15.77;4.30;;;18.30;99.90;;;;;;5086707;28;20085;-53
2022/08/29 08:31:14;;;;;;;14.63;3.47;;;18.30;99.90;;;;;;5085421;28;20464;-55
2022/08/29 08:33:41;;;;;;;11.98;3.78;;;18.30;99.90;;;;;;5085365;28;20048;-54
2022/08/29 08:36:18;;;;;;;10.85;3.15;;;18.20;99.90;;;;;;5086213;28;20033;-52
2022/08/29 08:38:44;;;;;;;11.55;3.45;;;18.20;99.90;;;;;;5086935;28;20069;-52
2022/08/29 08:41:19;;;;;;;14.68;3.90;;;18.10;99.90;;;;;;5088022;28;20040;-55
2022/08/29 08:44:06;;;;;;;12.00;3.83;;;18.20;99.90;;;;;;5086199;28;20045;-56
2022/08/29 08:46:38;;;;;;;12.65;3.53;;;18.20;99.90;;;;;;5086069;28;20087;-53
2022/08/29 08:49:15;;;;;;;12.73;3.83;;;18.20;99.90;;;;;;5085724;28;20044;-53
2022/08/29 08:51:47;;;;;;;16.05;4.20;;;18.30;99.90;;;;;;5080658;28;20473;-54
2022/08/29 08:54:33;;;;;;;12.82;4.20;;;18.30;99.90;;;;;;5076582;28;20037;-51
2022/08/29 08:57:28;;;;;;;13.68;5.03;;;18.30;99.90;;;;;;5076488;28;20052;-53
2022/08/29 08:59:57;;;;;;;18.40;4.40;;;18.40;99.90;;;;;;5075398;28;20083;-57
2022/08/29 09:02:44;;;;;;;14.85;4.80;;;18.50;99.90;;;;;;5076007;28;20124;-53
2022/08/29 09:05:09;;;;;;;14.45;4.05;;;18.50;99.90;;;;;;5075163;28;20058;-53
2022/08/29 09:08:09;;;;;;;10.13;3.78;;;18.50;99.90;;;;;;5075718;28;20127;-53
2022/08/29 09:11:11;;;;;;;12.02;4.10;;;18.60;99.90;;;;;;5075920;28;20055;-53
2022/08/29 09:13:59;;;;;;;13.30;3.42;;;18.70;99.90;;;;;;5074338;28;20060;-49
2022/08/29 09:16:35;;;;;;;11.23;3.63;;;18.80;99.90;;;;;;5076734;28;20056;-52
2022/08/29 09:19:05;;;;;;;11.80;3.80;;;18.80;99.90;;;;;;5096590;28;20051;-53
2022/08/29 09:21:38;;;;;;;13.18;3.92;;;18.90;99.90;;;;;;5096367;28;20040;-50
2022/08/29 09:24:07;;;;;;;13.60;3.85;;;19.00;99.90;;;;;;5095984;28;20109;-50
2022/08/29 09:26:33;;;;;;;12.77;3.83;;;19.10;99.90;;;;;;5096881;28;20036;-52
2022/08/29 09:28:59;;;;;;;13.02;3.92;;;19.20;99.90;;;;;;5096065;28;20048;-50
2022/08/29 09:31:28;;;;;;;10.65;3.60;;;19.30;99.90;;;;;;5087676;28;20048;-51
2022/08/29 09:34:07;;;;;;;10.68;3.47;;;19.40;99.90;;;;;;5086351;28;20043;-51
2022/08/29 09:36:51;;;;;;;10.40;3.67;;;19.50;99.90;;;;;;5086536;28;20076;-52
2022/08/29 09:39:30;;;;;;;11.95;3.85;;;20.00;99.90;;;;;;5086526;28;20039;-49
2022/08/29 09:42:16;;;;;;;9.30;3.38;;;20.30;99.90;;;;;;5086191;28;20044;-52
2022/08/29 09:44:55;;;;;;;11.65;3.63;;;20.40;99.90;;;;;;5084667;28;20080;-52
2022/08/29 09:47:26;;;;;;;11.20;3.45;;;20.50;99.90;;;;;;5085579;28;20050;-51
2022/08/29 09:50:01;;;;;;;11.60;3.78;;;20.40;99.90;;;;;;5086408;28;20050;-50
2022/08/29 09:52:27;;;;;;;12.75;4.22;;;20.40;99.90;;;;;;5086815;28;20057;-52
2022/08/29 09:54:53;;;;;;;12.38;3.38;;;20.40;99.90;;;;;;5086888;28;20052;-53
2022/08/29 09:57:24;;;;;;;10.55;3.72;;;20.40;99.90;;;;;;5095592;28;20059;-53
2022/08/29 10:00:14;;;;;;;13.27;3.50;;;20.30;99.90;;;;;;5094564;28;20040;-52
2022/08/29 10:02:44;;;;;;;8.38;3.22;;;20.30;99.90;;;;;;5095390;28;20048;-52
2022/08/29 10:05:33;;;;;;;10.88;3.92;;;20.30;99.90;;;;;;5097573;28;20560;-52
2022/08/29 10:08:00;;;;;;;10.25;3.05;;;20.40;99.90;;;;;;5098782;28;20052;-52
2022/08/29 10:10:29;;;;;;;11.80;4.18;;;20.40;99.90;;;;;;5098587;28;20134;-53
2022/08/29 10:13:05;;;;;;;10.23;3.75;;;20.50;99.90;;;;;;5098791;28;20047;-53
2022/08/29 10:16:00;;;;;;;8.93;2.83;;;20.50;99.90;;;;;;5098341;28;20040;-53
2022/08/29 10:18:50;;;;;;;10.02;3.17;;;20.50;99.90;;;;;;5080591;28;20465;-52
2022/08/29 10:21:27;;;;;;;13.20;3.28;;;20.50;99.90;;;;;;5078358;28;20092;-52
2022/08/29 10:24:28;;;;;;;11.95;3.67;;;20.50;99.90;;;;;;5078051;28;20037;-51
2022/08/29 10:27:17;;;;;;;12.73;3.70;;;20.60;99.90;;;;;;5078391;28;20142;-52
2022/08/29 10:29:54;;;;;;;15.32;3.78;;;20.50;99.90;;;;;;5077934;28;20283;-51
2022/08/29 10:32:25;;;;;;;11.80;3.53;;;20.60;99.90;;;;;;5076586;28;20102;-51
2022/08/29 10:34:57;;;;;;;10.88;3.40;;;20.60;99.90;;;;;;5083938;28;20062;-53
2022/08/29 10:37:57;;;;;;;8.48;3.10;;;20.50;99.90;;;;;;5097776;28;20044;-52
2022/08/29 10:41:06;;;;;;;9.10;3.15;;;20.60;99.90;;;;;;5091368;28;20104;-52
2022/08/29 10:43:44;;;;;;;11.15;3.03;;;20.50;99.90;;;;;;5073064;28;20075;-51
2022/08/29 10:46:50;;;;;;;11.70;3.50;;;20.60;99.90;;;;;;5077295;28;20040;-53
2022/08/29 10:49:21;;;;;;;9.77;3.28;;;20.70;99.90;;;;;;5076968;28;20052;-53
2022/08/29 10:51:57;;;;;;;13.30;3.90;;;20.60;99.90;;;;;;5093384;28;20047;-50
2022/08/29 10:54:47;;;;;;;13.50;3.75;;;20.60;99.90;;;;;;5092195;28;20094;-52
2022/08/29 10:57:35;;;;;;;11.93;3.47;;;20.60;99.90;;;;;;5098008;28;20536;-50
2022/08/29 11:00:07;;;;;;;13.38;3.53;;;20.60;99.90;;;;;;5097684;28;20048;-52
2022/08/29 11:02:45;;;;;;;;;;;20.70;99.90;;;;;;5091014;28;20043;-52
2022/08/29 11:05:19;;;;;;;11.27;2.95;;;20.70;99.90;;;;;;5096707;28;19980;-52
2022/08/29 11:07:59;;;;;;;11.77;3.50;;;20.70;99.90;;;;;;5097452;28;20465;-53
2022/08/29 11:10:31;;;;;;;11.32;3.00;;;20.80;99.90;;;;;;5097642;28;20055;-51
2022/08/29 11:13:09;;;;;;;13.38;3.60;;;20.90;99.90;;;;;;5098012;28;20043;-52
2022/08/29 11:15:37;;;;;;;9.65;2.97;;;21.00;99.90;;;;;;5097097;28;20089;-53
2022/08/29 11:18:22;;;;;;;12.10;3.08;;;21.00;99.90;;;;;;5083311;28;20045;-53
2022/08/29 11:20:59;;;;;;;13.32;3.50;;;21.10;99.90;;;;;;5077256;28;20056;-51
2022/08/29 11:23:37;;;;;;;17.58;4.75;;;21.20;99.90;;;;;;5077234;28;20496;-50
2022/08/29 11:26:13;;;;;;;10.52;3.55;;;21.20;99.90;;;;;;5077554;28;20064;-51
2022/08/29 11:28:56;;;;;;;10.48;2.90;;;21.20;99.90;;;;;;5076797;28;20075;-53
2022/08/29 11:31:49;;;;;;;10.93;3.35;;;21.10;99.90;;;;;;5077780;28;20040;-52
2022/08/29 11:34:37;;;;;;;14.25;3.15;;;21.20;99.90;;;;;;5077487;28;20043;-52
2022/08/29 11:37:18;;;;;;;12.85;3.38;;;21.20;99.90;;;;;;5076808;28;20111;-53
2022/08/29 11:40:05;;;;;;;12.02;2.92;;;21.20;99.90;;;;;;5081566;28;20044;-53
2022/08/29 11:42:36;;;;;;;8.20;3.03;;;21.20;99.90;;;;;;5081520;28;20135;-51
2022/08/29 11:45:05;;;;;;;9.20;3.00;;;21.30;99.90;;;;;;5080921;28;20048;-54
2022/08/29 11:47:31;;;;;;;10.73;3.60;;;21.20;99.90;;;;;;5081370;28;20052;-53
2022/08/29 11:50:05;;;;;;;11.73;3.05;;;21.20;99.90;;;;;;5079172;28;20075;-53
2022/08/29 11:52:33;;;;;;;10.50;3.17;;;21.10;99.90;;;;;;5079986;28;20078;-55
2022/08/29 11:55:22;;;;;;;8.48;2.80;;;21.10;99.90;;;;;;5080770;28;20091;-52
2022/08/29 11:57:58;;;;;;;12.90;3.10;;;21.00;99.90;;;;;;5080913;28;20074;-54
2022/08/29 12:00:50;;;;;;;8.73;3.00;;;21.10;99.90;;;;;;5080702;28;20072;-54
2022/08/29 12:03:33;;;;;;;;;;;21.00;99.90;;;;;;5086290;28;20036;-53
2022/08/29 12:06:18;;;;;;;7.38;2.70;;;21.10;99.90;;;;;;5091730;28;19995;-53
2022/08/29 12:09:05;;;;;;;14.57;3.63;;;21.10;99.90;;;;;;5091300;28;20036;-53
2022/08/29 12:12:07;;;;;;;9.07;2.95;;;21.00;99.90;;;;;;5089754;28;20535;-52
2022/08/29 12:14:34;;;;;;;8.65;2.70;;;21.20;99.90;;;;;;5090600;28;20070;-51
2022/08/29 12:17:03;;;;;;;10.15;3.40;;;21.10;99.90;;;;;;5089263;28;20040;-52
2022/08/29 12:19:50;;;;;;;13.00;3.28;;;21.20;99.90;;;;;;5089629;28;20076;-52
2022/08/29 12:22:50;;;;;;;11.00;3.15;;;21.10;99.90;;;;;;5091379;28;20474;-52
2022/08/29 12:25:31;;;;;;;10.75;2.58;;;21.20;99.90;;;;;;5090428;28;20044;-53
2022/08/29 12:28:16;;;;;;;10.25;2.75;;;21.20;99.90;;;;;;5090288;28;20048;-53
2022/08/29 12:30:48;;;;;;;8.50;2.88;;;21.20;99.90;;;;;;5091161;28;20050;-53
2022/08/29 12:33:39;;;;;;;8.75;3.20;;;21.20;99.90;;;;;;5090084;28;20041;-52
2022/08/29 12:36:20;;;;;;;11.27;2.95;;;21.20;99.90;;;;;;5089101;28;20037;-52
2022/08/29 12:39:21;;;;;;;9.50;2.78;;;21.10;99.90;;;;;;5089818;28;20083;-52
2022/08/29 12:42:20;;;;;;;7.93;2.55;;;21.00;99.90;;;;;;5055111;28;20048;-53
2022/08/29 12:45:04;;;;;;;11.07;3.45;;;20.90;99.90;;;;;;5087593;28;20205;-53
2022/08/29 12:47:36;;;;;;;9.88;2.63;;;20.90;99.90;;;;;;5091275;28;20036;-53
2022/08/29 12:50:19;;;;;;;10.20;3.17;;;20.90;99.90;;;;;;5087094;28;20040;-54
2022/08/29 12:52:59;;;;;;;7.45;2.53;;;20.90;99.90;;;;;;5091325;28;20055;-53
2022/08/29 12:55:40;;;;;;;9.88;2.58;;;20.90;99.90;;;;;;5090591;28;20060;-53
2022/08/29 12:58:08;;;;;;;10.07;2.70;;;20.90;99.90;;;;;;5090226;28;20045;-54
2022/08/29 13:00:34;;;;;;;11.38;2.97;;;20.90;99.90;;;;;;5088798;28;20037;-54
2022/08/29 13:03:16;;;;;;;10.32;2.95;;;21.00;99.90;;;;;;5088718;28;20708;-51
2022/08/29 13:05:42;;;;;;;;;;;21.00;99.90;;;;;;5090840;28;20071;-52